ハバロフスク の空港の天気 - METARとTAF

ハバロフスク空港 ( UHHH / KHV ) - ロシア ハバロフスク
飛行場実況気象(Metar)
観測時間02/26 13:30 VLAT (02/26 03:30 UTC)
風向・風速不定 1m/s
視程10km以上
天気現象
なし
気温-11℃
湿度61%
気圧1030hPa
METARUHHH 260330Z VRB01MPS CAVOK M11/M17 Q1030 R23L/090060 NOSIG RMK QFE766/1021
過去の天気等 Google飛行場航空写真 Wunderground天気予報

過去48時間のMETAR

飛行場予報(TAF)
発表時間: 2/26 11:53 VLAT (2/26 01:53 UTC)
予報対象時間: 26日13時 VLAT ~ 27日19時 VLAT
風向・風速西南西 3m/s
視程10km以上
なし
TAF UHHH 260153Z 2603/2709 24003MPS CAVOK